sensor_id;sensor_type;location;lat;lon;timestamp;temperature;humidity
21861;DHT22;11095;48.066;8.540;2024-03-23T00:54:39;7.10;99.90
21861;DHT22;11095;48.066;8.540;2024-03-23T00:57:05;7.10;99.90
21861;DHT22;11095;48.066;8.540;2024-03-23T00:59:30;7.10;99.90
21861;DHT22;11095;48.066;8.540;2024-03-23T01:01:56;7.10;99.90
21861;DHT22;11095;48.066;8.540;2024-03-23T01:04:22;7.10;99.90
21861;DHT22;11095;48.066;8.540;2024-03-23T01:06:47;7.20;99.90
21861;DHT22;11095;48.066;8.540;2024-03-23T01:09:13;7.20;99.90
21861;DHT22;11095;48.066;8.540;2024-03-23T01:11:39;7.20;99.90
21861;DHT22;11095;48.066;8.540;2024-03-23T01:14:05;7.30;99.90
21861;DHT22;11095;48.066;8.540;2024-03-23T01:16:31;7.30;99.90
21861;DHT22;11095;48.066;8.540;2024-03-23T01:18:57;7.30;99.90
21861;DHT22;11095;48.066;8.540;2024-03-23T01:21:22;7.30;99.90
21861;DHT22;11095;48.066;8.540;2024-03-23T01:23:48;7.20;99.90
21861;DHT22;11095;48.066;8.540;2024-03-23T01:26:14;7.30;99.90
21861;DHT22;11095;48.066;8.540;2024-03-23T01:28:40;7.30;99.90
21861;DHT22;11095;48.066;8.540;2024-03-23T01:31:05;7.30;99.90
21861;DHT22;11095;48.066;8.540;2024-03-23T01:33:31;7.30;99.90
21861;DHT22;11095;48.066;8.540;2024-03-23T01:35:57;7.30;99.90
21861;DHT22;11095;48.066;8.540;2024-03-23T01:38:22;7.40;99.90
21861;DHT22;11095;48.066;8.540;2024-03-23T01:40:48;7.40;99.90
21861;DHT22;11095;48.066;8.540;2024-03-23T01:43:13;7.40;99.90
21861;DHT22;11095;48.066;8.540;2024-03-23T01:45:39;7.40;99.90
21861;DHT22;11095;48.066;8.540;2024-03-23T01:48:05;7.40;99.90
21861;DHT22;11095;48.066;8.540;2024-03-23T01:50:31;7.40;99.90
21861;DHT22;11095;48.066;8.540;2024-03-23T01:53:01;7.40;99.90
21861;DHT22;11095;48.066;8.540;2024-03-23T01:55:27;7.40;99.90
21861;DHT22;11095;48.066;8.540;2024-03-23T01:57:53;7.40;99.90
21861;DHT22;11095;48.066;8.540;2024-03-23T02:00:19;7.40;99.90
21861;DHT22;11095;48.066;8.540;2024-03-23T02:02:45;7.40;99.90
21861;DHT22;11095;48.066;8.540;2024-03-23T02:05:13;7.40;99.90
21861;DHT22;11095;48.066;8.540;2024-03-23T02:07:40;7.40;99.90
21861;DHT22;11095;48.066;8.540;2024-03-23T02:10:09;7.40;99.90
21861;DHT22;11095;48.066;8.540;2024-03-23T02:12:36;7.50;99.90
21861;DHT22;11095;48.066;8.540;2024-03-23T02:15:02;7.50;99.90
21861;DHT22;11095;48.066;8.540;2024-03-23T02:17:29;7.60;99.90
21861;DHT22;11095;48.066;8.540;2024-03-23T02:19:55;7.70;99.90
21861;DHT22;11095;48.066;8.540;2024-03-23T02:22:20;7.70;99.90
21861;DHT22;11095;48.066;8.540;2024-03-23T02:24:46;7.80;99.90
21861;DHT22;11095;48.066;8.540;2024-03-23T02:27:12;7.80;99.90
21861;DHT22;11095;48.066;8.540;2024-03-23T02:29:37;7.80;99.90
21861;DHT22;11095;48.066;8.540;2024-03-23T02:32:03;7.80;99.90
21861;DHT22;11095;48.066;8.540;2024-03-23T02:34:29;7.80;99.90
21861;DHT22;11095;48.066;8.540;2024-03-23T02:36:54;7.80;99.90
21861;DHT22;11095;48.066;8.540;2024-03-23T02:39:20;7.80;99.90
21861;DHT22;11095;48.066;8.540;2024-03-23T02:41:45;7.80;99.90
21861;DHT22;11095;48.066;8.540;2024-03-23T02:44:11;7.70;99.90
21861;DHT22;11095;48.066;8.540;2024-03-23T02:46:39;7.80;99.90
21861;DHT22;11095;48.066;8.540;2024-03-23T02:49:04;7.80;99.90
21861;DHT22;11095;48.066;8.540;2024-03-23T02:51:30;7.90;99.90
21861;DHT22;11095;48.066;8.540;2024-03-23T02:53:56;7.90;99.90
21861;DHT22;11095;48.066;8.540;2024-03-23T02:56:22;8.00;99.90
21861;DHT22;11095;48.066;8.540;2024-03-23T02:58:47;8.00;99.90
21861;DHT22;11095;48.066;8.540;2024-03-23T03:01:13;8.00;99.90
21861;DHT22;11095;48.066;8.540;2024-03-23T03:03:38;8.00;99.90
21861;DHT22;11095;48.066;8.540;2024-03-23T03:06:04;8.00;99.90
21861;DHT22;11095;48.066;8.540;2024-03-23T03:08:30;7.90;99.90
21861;DHT22;11095;48.066;8.540;2024-03-23T03:10:55;7.90;99.90
21861;DHT22;11095;48.066;8.540;2024-03-23T03:13:21;7.80;99.90
21861;DHT22;11095;48.066;8.540;2024-03-23T03:15:46;7.80;99.90
21861;DHT22;11095;48.066;8.540;2024-03-23T03:18:12;7.80;99.90
21861;DHT22;11095;48.066;8.540;2024-03-23T03:20:41;8.00;99.90
21861;DHT22;11095;48.066;8.540;2024-03-23T03:23:07;8.10;99.90
21861;DHT22;11095;48.066;8.540;2024-03-23T03:25:33;8.30;99.90
21861;DHT22;11095;48.066;8.540;2024-03-23T03:27:59;8.50;99.90
21861;DHT22;11095;48.066;8.540;2024-03-23T03:30:25;8.60;99.90
21861;DHT22;11095;48.066;8.540;2024-03-23T03:32:53;8.80;99.90
21861;DHT22;11095;48.066;8.540;2024-03-23T03:35:19;9.00;99.90
21861;DHT22;11095;48.066;8.540;2024-03-23T03:37:44;9.10;99.90
21861;DHT22;11095;48.066;8.540;2024-03-23T03:40:11;9.30;99.90
21861;DHT22;11095;48.066;8.540;2024-03-23T03:42:36;9.30;99.90
21861;DHT22;11095;48.066;8.540;2024-03-23T03:45:02;9.40;99.90
21861;DHT22;11095;48.066;8.540;2024-03-23T03:47:29;9.50;99.90
21861;DHT22;11095;48.066;8.540;2024-03-23T03:49:55;9.60;99.90
21861;DHT22;11095;48.066;8.540;2024-03-23T03:52:20;9.60;99.90
21861;DHT22;11095;48.066;8.540;2024-03-23T03:54:46;9.70;99.90
21861;DHT22;11095;48.066;8.540;2024-03-23T03:57:12;9.70;99.90
21861;DHT22;11095;48.066;8.540;2024-03-23T03:59:37;9.60;99.90
21861;DHT22;11095;48.066;8.540;2024-03-23T04:02:03;9.70;99.90
21861;DHT22;11095;48.066;8.540;2024-03-23T04:04:28;9.70;99.90
21861;DHT22;11095;48.066;8.540;2024-03-23T04:07:01;9.70;99.90
21861;DHT22;11095;48.066;8.540;2024-03-23T04:09:26;9.80;99.90
21861;DHT22;11095;48.066;8.540;2024-03-23T04:11:52;9.80;99.90
21861;DHT22;11095;48.066;8.540;2024-03-23T04:14:18;9.90;99.90
21861;DHT22;11095;48.066;8.540;2024-03-23T04:16:43;9.90;99.90
21861;DHT22;11095;48.066;8.540;2024-03-23T04:19:09;9.90;99.90
21861;DHT22;11095;48.066;8.540;2024-03-23T04:21:35;10.00;99.90
21861;DHT22;11095;48.066;8.540;2024-03-23T04:24:00;10.00;99.90
21861;DHT22;11095;48.066;8.540;2024-03-23T04:26:26;10.10;99.90
21861;DHT22;11095;48.066;8.540;2024-03-23T04:28:52;10.10;99.90
21861;DHT22;11095;48.066;8.540;2024-03-23T04:31:17;10.10;99.90
21861;DHT22;11095;48.066;8.540;2024-03-23T04:33:43;10.20;99.90
21861;DHT22;11095;48.066;8.540;2024-03-23T04:36:08;10.20;99.90
21861;DHT22;11095;48.066;8.540;2024-03-23T04:38:35;10.20;99.90
21861;DHT22;11095;48.066;8.540;2024-03-23T04:41:01;10.30;99.90
21861;DHT22;11095;48.066;8.540;2024-03-23T04:43:27;10.30;99.90
21861;DHT22;11095;48.066;8.540;2024-03-23T04:45:53;10.30;99.90
21861;DHT22;11095;48.066;8.540;2024-03-23T04:48:20;10.40;99.90
21861;DHT22;11095;48.066;8.540;2024-03-23T04:50:46;10.40;99.90
21861;DHT22;11095;48.066;8.540;2024-03-23T04:53:12;10.40;99.90
21861;DHT22;11095;48.066;8.540;2024-03-23T04:55:37;10.40;99.90
21861;DHT22;11095;48.066;8.540;2024-03-23T04:58:03;10.40;99.90
21861;DHT22;11095;48.066;8.540;2024-03-23T05:00:29;10.30;99.90
21861;DHT22;11095;48.066;8.540;2024-03-23T05:02:54;10.20;99.90
21861;DHT22;11095;48.066;8.540;2024-03-23T05:05:20;10.10;99.90
21861;DHT22;11095;48.066;8.540;2024-03-23T05:07:45;10.00;99.90
21861;DHT22;11095;48.066;8.540;2024-03-23T05:10:11;10.00;99.90
21861;DHT22;11095;48.066;8.540;2024-03-23T05:12:40;10.00;99.90
21861;DHT22;11095;48.066;8.540;2024-03-23T05:15:06;9.90;99.90
21861;DHT22;11095;48.066;8.540;2024-03-23T05:17:33;9.90;99.90
21861;DHT22;11095;48.066;8.540;2024-03-23T05:19:59;9.90;99.90
21861;DHT22;11095;48.066;8.540;2024-03-23T05:22:25;9.90;99.90
21861;DHT22;11095;48.066;8.540;2024-03-23T05:24:51;9.90;99.90
21861;DHT22;11095;48.066;8.540;2024-03-23T05:27:16;9.90;99.90
21861;DHT22;11095;48.066;8.540;2024-03-23T05:29:42;9.90;99.90
21861;DHT22;11095;48.066;8.540;2024-03-23T05:32:07;9.90;99.90
21861;DHT22;11095;48.066;8.540;2024-03-23T05:34:33;9.80;99.90
21861;DHT22;11095;48.066;8.540;2024-03-23T05:36:59;9.80;99.90
21861;DHT22;11095;48.066;8.540;2024-03-23T05:39:24;9.70;99.90
21861;DHT22;11095;48.066;8.540;2024-03-23T05:41:50;9.80;99.90
21861;DHT22;11095;48.066;8.540;2024-03-23T05:44:15;9.70;99.90
21861;DHT22;11095;48.066;8.540;2024-03-23T05:46:41;9.70;99.90
21861;DHT22;11095;48.066;8.540;2024-03-23T05:49:08;9.70;99.90
21861;DHT22;11095;48.066;8.540;2024-03-23T05:51:33;9.70;99.90
21861;DHT22;11095;48.066;8.540;2024-03-23T05:53:59;9.70;99.90
21861;DHT22;11095;48.066;8.540;2024-03-23T05:56:24;9.70;99.90
21861;DHT22;11095;48.066;8.540;2024-03-23T05:58:51;9.60;99.90
21861;DHT22;11095;48.066;8.540;2024-03-23T06:01:17;9.50;99.90
21861;DHT22;11095;48.066;8.540;2024-03-23T06:03:43;9.50;99.90
21861;DHT22;11095;48.066;8.540;2024-03-23T06:06:10;9.40;99.90
21861;DHT22;11095;48.066;8.540;2024-03-23T06:08:38;9.30;99.90
21861;DHT22;11095;48.066;8.540;2024-03-23T06:11:04;9.20;99.90
21861;DHT22;11095;48.066;8.540;2024-03-23T06:13:31;9.10;99.90
21861;DHT22;11095;48.066;8.540;2024-03-23T06:15:57;8.90;99.90
21861;DHT22;11095;48.066;8.540;2024-03-23T06:18:24;8.80;99.90
21861;DHT22;11095;48.066;8.540;2024-03-23T06:20:49;8.80;99.90
21861;DHT22;11095;48.066;8.540;2024-03-23T06:23:15;8.70;99.90
21861;DHT22;11095;48.066;8.540;2024-03-23T06:25:42;8.70;99.90
21861;DHT22;11095;48.066;8.540;2024-03-23T06:28:08;8.60;99.90
21861;DHT22;11095;48.066;8.540;2024-03-23T06:30:33;8.60;99.90
21861;DHT22;11095;48.066;8.540;2024-03-23T06:32:59;8.50;99.90
21861;DHT22;11095;48.066;8.540;2024-03-23T06:35:25;8.50;99.90
21861;DHT22;11095;48.066;8.540;2024-03-23T06:37:50;8.50;99.90
21861;DHT22;11095;48.066;8.540;2024-03-23T06:40:16;8.40;99.90
21861;DHT22;11095;48.066;8.540;2024-03-23T06:42:41;8.30;99.90
21861;DHT22;11095;48.066;8.540;2024-03-23T06:45:07;8.20;99.90
21861;DHT22;11095;48.066;8.540;2024-03-23T06:47:33;8.10;99.90
21861;DHT22;11095;48.066;8.540;2024-03-23T06:50:03;8.00;99.90
21861;DHT22;11095;48.066;8.540;2024-03-23T06:52:29;7.90;99.90
21861;DHT22;11095;48.066;8.540;2024-03-23T06:54:54;7.80;99.90
21861;DHT22;11095;48.066;8.540;2024-03-23T06:57:20;7.70;99.90
21861;DHT22;11095;48.066;8.540;2024-03-23T06:59:45;7.50;99.90
21861;DHT22;11095;48.066;8.540;2024-03-23T07:02:11;7.40;99.90
21861;DHT22;11095;48.066;8.540;2024-03-23T07:04:37;7.30;99.90
21861;DHT22;11095;48.066;8.540;2024-03-23T07:07:04;7.20;99.90
21861;DHT22;11095;48.066;8.540;2024-03-23T07:09:30;7.00;99.90
21861;DHT22;11095;48.066;8.540;2024-03-23T07:11:59;7.00;99.90
21861;DHT22;11095;48.066;8.540;2024-03-23T07:14:24;7.00;99.90
21861;DHT22;11095;48.066;8.540;2024-03-23T07:16:50;7.10;99.90
21861;DHT22;11095;48.066;8.540;2024-03-23T07:19:16;7.10;99.90
21861;DHT22;11095;48.066;8.540;2024-03-23T07:21:45;7.10;99.90
21861;DHT22;11095;48.066;8.540;2024-03-23T07:24:11;7.10;99.90
21861;DHT22;11095;48.066;8.540;2024-03-23T07:26:37;7.10;99.90
21861;DHT22;11095;48.066;8.540;2024-03-23T07:29:04;7.10;99.90
21861;DHT22;11095;48.066;8.540;2024-03-23T07:31:29;7.20;99.90
21861;DHT22;11095;48.066;8.540;2024-03-23T07:33:55;7.20;99.90
21861;DHT22;11095;48.066;8.540;2024-03-23T07:36:20;7.20;99.90
21861;DHT22;11095;48.066;8.540;2024-03-23T07:38:46;7.10;99.90
21861;DHT22;11095;48.066;8.540;2024-03-23T07:41:15;7.00;99.90
21861;DHT22;11095;48.066;8.540;2024-03-23T07:43:43;7.00;99.90
21861;DHT22;11095;48.066;8.540;2024-03-23T07:46:09;7.00;99.90
21861;DHT22;11095;48.066;8.540;2024-03-23T07:48:35;7.10;99.90
21861;DHT22;11095;48.066;8.540;2024-03-23T07:51:02;7.20;99.90
21861;DHT22;11095;48.066;8.540;2024-03-23T07:53:28;7.70;99.90
21861;DHT22;11095;48.066;8.540;2024-03-23T07:56:08;8.00;99.90
21861;DHT22;11095;48.066;8.540;2024-03-23T07:58:34;8.10;99.90
21861;DHT22;11095;48.066;8.540;2024-03-23T08:01:13;8.20;99.90
21861;DHT22;11095;48.066;8.540;2024-03-23T08:03:43;8.00;99.90
21861;DHT22;11095;48.066;8.540;2024-03-23T08:06:17;8.00;99.90
21861;DHT22;11095;48.066;8.540;2024-03-23T08:08:46;7.90;99.90
21861;DHT22;11095;48.066;8.540;2024-03-23T08:11:12;7.80;99.90
21861;DHT22;11095;48.066;8.540;2024-03-23T08:17:00;7.50;99.90
21861;DHT22;11095;48.066;8.540;2024-03-23T08:19:25;7.30;99.90
21861;DHT22;11095;48.066;8.540;2024-03-23T08:21:51;7.20;99.90
21861;DHT22;11095;48.066;8.540;2024-03-23T08:24:17;7.10;99.90
21861;DHT22;11095;48.066;8.540;2024-03-23T08:26:42;7.00;99.90
21861;DHT22;11095;48.066;8.540;2024-03-23T08:29:08;6.90;99.90
21861;DHT22;11095;48.066;8.540;2024-03-23T08:31:33;6.90;99.90
21861;DHT22;11095;48.066;8.540;2024-03-23T08:33:59;6.90;99.90
21861;DHT22;11095;48.066;8.540;2024-03-23T08:36:24;6.90;99.90
21861;DHT22;11095;48.066;8.540;2024-03-23T08:38:50;6.90;99.90
21861;DHT22;11095;48.066;8.540;2024-03-23T08:41:19;6.90;99.90
21861;DHT22;11095;48.066;8.540;2024-03-23T08:43:44;6.80;99.90
21861;DHT22;11095;48.066;8.540;2024-03-23T08:46:15;6.80;99.90
21861;DHT22;11095;48.066;8.540;2024-03-23T08:48:45;6.60;99.90
21861;DHT22;11095;48.066;8.540;2024-03-23T08:51:12;6.50;99.90
21861;DHT22;11095;48.066;8.540;2024-03-23T08:53:38;6.70;99.90
21861;DHT22;11095;48.066;8.540;2024-03-23T08:56:05;7.00;99.90
21861;DHT22;11095;48.066;8.540;2024-03-23T08:58:32;7.70;99.90
21861;DHT22;11095;48.066;8.540;2024-03-23T09:01:06;8.40;99.90
21861;DHT22;11095;48.066;8.540;2024-03-23T09:03:32;9.80;99.90
21861;DHT22;11095;48.066;8.540;2024-03-23T09:05:59;11.20;99.90
21861;DHT22;11095;48.066;8.540;2024-03-23T09:08:25;11.80;99.90
21861;DHT22;11095;48.066;8.540;2024-03-23T09:10:52;12.30;99.90
21861;DHT22;11095;48.066;8.540;2024-03-23T09:13:17;12.70;99.90
21861;DHT22;11095;48.066;8.540;2024-03-23T09:15:48;13.30;99.90
21861;DHT22;11095;48.066;8.540;2024-03-23T09:18:14;13.70;99.90
21861;DHT22;11095;48.066;8.540;2024-03-23T09:20:39;13.90;99.90
21861;DHT22;11095;48.066;8.540;2024-03-23T09:23:05;13.90;99.90
21861;DHT22;11095;48.066;8.540;2024-03-23T09:25:30;13.70;99.90
21861;DHT22;11095;48.066;8.540;2024-03-23T09:27:56;13.50;99.90
21861;DHT22;11095;48.066;8.540;2024-03-23T09:30:21;13.30;99.90
21861;DHT22;11095;48.066;8.540;2024-03-23T09:32:47;13.10;99.90
21861;DHT22;11095;48.066;8.540;2024-03-23T09:35:13;13.60;99.90
21861;DHT22;11095;48.066;8.540;2024-03-23T09:37:39;13.60;99.90
21861;DHT22;11095;48.066;8.540;2024-03-23T09:40:14;13.50;99.90
21861;DHT22;11095;48.066;8.540;2024-03-23T09:42:41;13.50;99.90
21861;DHT22;11095;48.066;8.540;2024-03-23T09:45:17;13.10;99.90
21861;DHT22;11095;48.066;8.540;2024-03-23T09:47:45;12.90;99.90
21861;DHT22;11095;48.066;8.540;2024-03-23T09:50:13;12.90;99.90
21861;DHT22;11095;48.066;8.540;2024-03-23T09:52:39;12.70;99.90
21861;DHT22;11095;48.066;8.540;2024-03-23T09:55:05;12.20;99.90
21861;DHT22;11095;48.066;8.540;2024-03-23T09:57:30;12.00;99.90
21861;DHT22;11095;48.066;8.540;2024-03-23T09:59:56;11.80;99.90
21861;DHT22;11095;48.066;8.540;2024-03-23T10:02:24;11.70;99.90
21861;DHT22;11095;48.066;8.540;2024-03-23T10:04:49;11.80;99.90
21861;DHT22;11095;48.066;8.540;2024-03-23T10:07:19;11.80;99.90
21861;DHT22;11095;48.066;8.540;2024-03-23T10:09:46;11.90;99.90
21861;DHT22;11095;48.066;8.540;2024-03-23T10:12:14;11.80;99.90
21861;DHT22;11095;48.066;8.540;2024-03-23T10:14:43;11.70;99.90
21861;DHT22;11095;48.066;8.540;2024-03-23T10:17:16;11.60;99.90
21861;DHT22;11095;48.066;8.540;2024-03-23T10:19:47;11.60;99.90
21861;DHT22;11095;48.066;8.540;2024-03-23T10:24:42;11.60;99.90
21861;DHT22;11095;48.066;8.540;2024-03-23T10:27:08;11.70;99.90
21861;DHT22;11095;48.066;8.540;2024-03-23T10:29:34;11.70;99.90
21861;DHT22;11095;48.066;8.540;2024-03-23T10:32:09;12.00;99.90
21861;DHT22;11095;48.066;8.540;2024-03-23T10:34:36;11.90;99.90
21861;DHT22;11095;48.066;8.540;2024-03-23T10:37:03;12.10;99.90
21861;DHT22;11095;48.066;8.540;2024-03-23T10:39:33;11.80;99.90
21861;DHT22;11095;48.066;8.540;2024-03-23T10:42:03;11.40;99.90
21861;DHT22;11095;48.066;8.540;2024-03-23T10:44:30;11.20;99.90
21861;DHT22;11095;48.066;8.540;2024-03-23T10:46:57;11.00;99.90
21861;DHT22;11095;48.066;8.540;2024-03-23T10:49:32;10.70;99.90
21861;DHT22;11095;48.066;8.540;2024-03-23T10:51:59;10.90;99.90
21861;DHT22;11095;48.066;8.540;2024-03-23T10:54:25;10.90;99.90
21861;DHT22;11095;48.066;8.540;2024-03-23T10:57:09;11.20;99.90
21861;DHT22;11095;48.066;8.540;2024-03-23T10:59:37;11.50;99.90
21861;DHT22;11095;48.066;8.540;2024-03-23T11:02:03;11.70;99.90
21861;DHT22;11095;48.066;8.540;2024-03-23T11:04:34;11.50;99.90
21861;DHT22;11095;48.066;8.540;2024-03-23T11:09:49;11.50;99.90
21861;DHT22;11095;48.066;8.540;2024-03-23T11:17:26;10.60;99.90
21861;DHT22;11095;48.066;8.540;2024-03-23T11:20:03;10.20;99.90
21861;DHT22;11095;48.066;8.540;2024-03-23T11:22:41;9.90;99.90
21861;DHT22;11095;48.066;8.540;2024-03-23T11:25:25;9.70;99.90
21861;DHT22;11095;48.066;8.540;2024-03-23T11:27:55;9.40;99.90
21861;DHT22;11095;48.066;8.540;2024-03-23T11:30:23;9.10;99.90
21861;DHT22;11095;48.066;8.540;2024-03-23T11:32:50;8.90;99.90
21861;DHT22;11095;48.066;8.540;2024-03-23T11:40:27;7.50;99.90
21861;DHT22;11095;48.066;8.540;2024-03-23T11:42:57;7.40;99.90
21861;DHT22;11095;48.066;8.540;2024-03-23T11:45:23;7.30;99.90
21861;DHT22;11095;48.066;8.540;2024-03-23T11:47:49;7.00;99.90
21861;DHT22;11095;48.066;8.540;2024-03-23T11:50:26;6.70;99.90
21861;DHT22;11095;48.066;8.540;2024-03-23T11:52:52;6.40;99.90
21861;DHT22;11095;48.066;8.540;2024-03-23T11:55:17;6.20;99.90
21861;DHT22;11095;48.066;8.540;2024-03-23T11:57:43;6.10;99.90
21861;DHT22;11095;48.066;8.540;2024-03-23T12:00:21;6.30;99.90
21861;DHT22;11095;48.066;8.540;2024-03-23T12:02:47;6.80;99.90
21861;DHT22;11095;48.066;8.540;2024-03-23T12:05:16;7.20;99.90
21861;DHT22;11095;48.066;8.540;2024-03-23T12:07:42;7.60;99.90
21861;DHT22;11095;48.066;8.540;2024-03-23T12:10:07;7.90;99.90
21861;DHT22;11095;48.066;8.540;2024-03-23T12:12:33;8.10;99.90
21861;DHT22;11095;48.066;8.540;2024-03-23T12:15:04;8.20;99.90
21861;DHT22;11095;48.066;8.540;2024-03-23T12:17:31;8.30;99.90
21861;DHT22;11095;48.066;8.540;2024-03-23T12:19:57;8.20;99.90
21861;DHT22;11095;48.066;8.540;2024-03-23T12:22:24;8.20;99.90
21861;DHT22;11095;48.066;8.540;2024-03-23T12:24:49;7.80;99.90
21861;DHT22;11095;48.066;8.540;2024-03-23T12:27:15;7.70;99.90
21861;DHT22;11095;48.066;8.540;2024-03-23T12:29:41;7.50;99.90
21861;DHT22;11095;48.066;8.540;2024-03-23T12:32:08;7.40;99.90
21861;DHT22;11095;48.066;8.540;2024-03-23T12:34:34;7.10;99.90
21861;DHT22;11095;48.066;8.540;2024-03-23T12:37:00;7.20;99.90
21861;DHT22;11095;48.066;8.540;2024-03-23T12:39:25;7.40;99.90
21861;DHT22;11095;48.066;8.540;2024-03-23T12:41:51;7.70;99.90
21861;DHT22;11095;48.066;8.540;2024-03-23T12:44:18;7.80;99.90
21861;DHT22;11095;48.066;8.540;2024-03-23T12:46:44;7.90;99.90
21861;DHT22;11095;48.066;8.540;2024-03-23T12:49:10;8.00;99.90
21861;DHT22;11095;48.066;8.540;2024-03-23T12:51:36;8.20;99.90
21861;DHT22;11095;48.066;8.540;2024-03-23T12:54:02;8.30;99.90
21861;DHT22;11095;48.066;8.540;2024-03-23T12:56:27;8.40;99.90
21861;DHT22;11095;48.066;8.540;2024-03-23T12:58:56;8.60;99.90
21861;DHT22;11095;48.066;8.540;2024-03-23T13:01:23;8.60;99.90
21861;DHT22;11095;48.066;8.540;2024-03-23T13:03:49;8.60;99.90
21861;DHT22;11095;48.066;8.540;2024-03-23T13:06:18;8.50;99.90
21861;DHT22;11095;48.066;8.540;2024-03-23T13:08:47;8.30;99.90
21861;DHT22;11095;48.066;8.540;2024-03-23T13:11:15;8.40;99.90
21861;DHT22;11095;48.066;8.540;2024-03-23T13:13:41;8.40;99.90
21861;DHT22;11095;48.066;8.540;2024-03-23T13:16:07;8.40;99.90
21861;DHT22;11095;48.066;8.540;2024-03-23T13:18:33;8.60;99.90
21861;DHT22;11095;48.066;8.540;2024-03-23T13:20:59;8.60;99.90
21861;DHT22;11095;48.066;8.540;2024-03-23T13:23:25;8.50;99.90
21861;DHT22;11095;48.066;8.540;2024-03-23T13:25:55;8.60;99.90
21861;DHT22;11095;48.066;8.540;2024-03-23T13:28:21;8.80;99.90
21861;DHT22;11095;48.066;8.540;2024-03-23T13:30:54;9.00;99.90
21861;DHT22;11095;48.066;8.540;2024-03-23T13:33:20;9.00;99.90
21861;DHT22;11095;48.066;8.540;2024-03-23T13:35:53;9.00;99.90
21861;DHT22;11095;48.066;8.540;2024-03-23T13:38:19;9.10;99.90
21861;DHT22;11095;48.066;8.540;2024-03-23T13:40:56;9.30;99.90
21861;DHT22;11095;48.066;8.540;2024-03-23T13:43:23;9.50;99.90
21861;DHT22;11095;48.066;8.540;2024-03-23T13:45:51;9.80;99.90
21861;DHT22;11095;48.066;8.540;2024-03-23T13:48:19;10.00;99.90
21861;DHT22;11095;48.066;8.540;2024-03-23T13:50:45;9.70;99.90
21861;DHT22;11095;48.066;8.540;2024-03-23T13:53:12;9.80;99.90
21861;DHT22;11095;48.066;8.540;2024-03-23T13:55:48;9.70;99.90
21861;DHT22;11095;48.066;8.540;2024-03-23T13:58:15;9.60;99.90
21861;DHT22;11095;48.066;8.540;2024-03-23T14:00:40;9.30;99.90
21861;DHT22;11095;48.066;8.540;2024-03-23T14:03:09;9.10;99.90
21861;DHT22;11095;48.066;8.540;2024-03-23T14:05:34;8.40;99.90
21861;DHT22;11095;48.066;8.540;2024-03-23T14:08:00;7.80;99.90
21861;DHT22;11095;48.066;8.540;2024-03-23T14:10:26;7.50;99.90
21861;DHT22;11095;48.066;8.540;2024-03-23T14:12:53;7.60;99.90
21861;DHT22;11095;48.066;8.540;2024-03-23T14:15:18;7.80;99.90
21861;DHT22;11095;48.066;8.540;2024-03-23T14:17:44;7.80;99.90
21861;DHT22;11095;48.066;8.540;2024-03-23T14:20:10;7.90;99.90
21861;DHT22;11095;48.066;8.540;2024-03-23T14:22:37;8.00;99.90
21861;DHT22;11095;48.066;8.540;2024-03-23T14:25:02;8.10;99.90
21861;DHT22;11095;48.066;8.540;2024-03-23T14:27:28;8.10;99.90
21861;DHT22;11095;48.066;8.540;2024-03-23T14:29:54;8.20;99.90
21861;DHT22;11095;48.066;8.540;2024-03-23T14:32:21;8.20;99.90
21861;DHT22;11095;48.066;8.540;2024-03-23T14:34:47;8.30;99.90
21861;DHT22;11095;48.066;8.540;2024-03-23T14:37:12;8.40;99.90
21861;DHT22;11095;48.066;8.540;2024-03-23T14:39:38;8.30;99.90
21861;DHT22;11095;48.066;8.540;2024-03-23T14:42:07;8.10;99.90
21861;DHT22;11095;48.066;8.540;2024-03-23T14:44:34;8.00;99.90
21861;DHT22;11095;48.066;8.540;2024-03-23T14:46:59;8.00;99.90
21861;DHT22;11095;48.066;8.540;2024-03-23T14:49:25;8.20;99.90
21861;DHT22;11095;48.066;8.540;2024-03-23T14:51:51;8.40;99.90
21861;DHT22;11095;48.066;8.540;2024-03-23T14:54:17;8.70;99.90
21861;DHT22;11095;48.066;8.540;2024-03-23T14:56:42;8.80;99.90
21861;DHT22;11095;48.066;8.540;2024-03-23T14:59:08;8.70;99.90
21861;DHT22;11095;48.066;8.540;2024-03-23T15:01:34;8.60;99.90
21861;DHT22;11095;48.066;8.540;2024-03-23T15:04:00;8.30;99.90
21861;DHT22;11095;48.066;8.540;2024-03-23T15:06:25;8.20;99.90
21861;DHT22;11095;48.066;8.540;2024-03-23T15:08:51;7.80;99.90
21861;DHT22;11095;48.066;8.540;2024-03-23T15:11:16;7.40;99.90
21861;DHT22;11095;48.066;8.540;2024-03-23T15:13:44;7.20;99.90
21861;DHT22;11095;48.066;8.540;2024-03-23T15:16:10;7.00;99.90
21861;DHT22;11095;48.066;8.540;2024-03-23T15:18:35;7.00;99.90
21861;DHT22;11095;48.066;8.540;2024-03-23T15:21:02;7.00;99.90
21861;DHT22;11095;48.066;8.540;2024-03-23T15:23:31;7.10;99.90
21861;DHT22;11095;48.066;8.540;2024-03-23T15:26:01;7.10;99.90
21861;DHT22;11095;48.066;8.540;2024-03-23T15:28:28;7.00;99.90
21861;DHT22;11095;48.066;8.540;2024-03-23T15:31:12;7.00;99.90
21861;DHT22;11095;48.066;8.540;2024-03-23T15:33:37;6.60;99.90
21861;DHT22;11095;48.066;8.540;2024-03-23T15:36:05;6.50;99.90
21861;DHT22;11095;48.066;8.540;2024-03-23T15:38:32;6.40;99.90
21861;DHT22;11095;48.066;8.540;2024-03-23T15:40:58;6.30;99.90
21861;DHT22;11095;48.066;8.540;2024-03-23T15:43:24;6.30;99.90
21861;DHT22;11095;48.066;8.540;2024-03-23T15:45:56;6.40;99.90
21861;DHT22;11095;48.066;8.540;2024-03-23T15:48:23;6.60;99.90
21861;DHT22;11095;48.066;8.540;2024-03-23T15:50:56;6.90;99.90
21861;DHT22;11095;48.066;8.540;2024-03-23T15:53:22;7.00;99.90
21861;DHT22;11095;48.066;8.540;2024-03-23T15:55:55;7.10;99.90
21861;DHT22;11095;48.066;8.540;2024-03-23T15:58:21;7.10;99.90
21861;DHT22;11095;48.066;8.540;2024-03-23T16:00:55;7.20;99.90
21861;DHT22;11095;48.066;8.540;2024-03-23T16:03:20;7.10;99.90
21861;DHT22;11095;48.066;8.540;2024-03-23T16:05:59;7.10;99.90
21861;DHT22;11095;48.066;8.540;2024-03-23T16:08:25;7.00;99.90
21861;DHT22;11095;48.066;8.540;2024-03-23T16:10:52;7.00;99.90
21861;DHT22;11095;48.066;8.540;2024-03-23T16:13:18;6.90;99.90
21861;DHT22;11095;48.066;8.540;2024-03-23T16:15:44;6.80;99.90
21861;DHT22;11095;48.066;8.540;2024-03-23T16:18:10;6.70;99.90
21861;DHT22;11095;48.066;8.540;2024-03-23T16:20:36;6.60;99.90
21861;DHT22;11095;48.066;8.540;2024-03-23T16:23:02;6.50;99.90
21861;DHT22;11095;48.066;8.540;2024-03-23T16:25:28;6.40;99.90
21861;DHT22;11095;48.066;8.540;2024-03-23T16:27:54;6.30;99.90
21861;DHT22;11095;48.066;8.540;2024-03-23T16:30:20;5.80;99.90
21861;DHT22;11095;48.066;8.540;2024-03-23T16:32:46;5.50;99.90
21861;DHT22;11095;48.066;8.540;2024-03-23T16:35:15;5.20;99.90
21861;DHT22;11095;48.066;8.540;2024-03-23T16:37:41;4.90;99.90
21861;DHT22;11095;48.066;8.540;2024-03-23T16:40:07;4.70;99.90
21861;DHT22;11095;48.066;8.540;2024-03-23T16:42:35;4.60;99.90
21861;DHT22;11095;48.066;8.540;2024-03-23T16:45:01;4.60;99.90
21861;DHT22;11095;48.066;8.540;2024-03-23T16:47:26;4.50;99.90
21861;DHT22;11095;48.066;8.540;2024-03-23T16:49:53;4.40;99.90
21861;DHT22;11095;48.066;8.540;2024-03-23T16:52:18;4.40;99.90